Crew | Aerofun Virtual



 METAR AND TAF INFORMATION
METAR FOR FAOR
ADDS - METARS form results

(0817 UTC 22 July 2019)
Data provider http://aviationweather.gov/metar/data/
 
METAR text: FAOR 220800Z 30011KT CAVOK 09/00 Q1030 NOSIG
Conditions at: FAOR (JOHANNESBURG/TAM, ZA) observed 0800 UTC 22 July 2019
Temperature: 9.0°C (48°F)
Dewpoint: 0.0°C (32°F) [RH = 53%]
Pressure (altimeter): 30.41 inches Hg (1030.0 mb)
Winds: from the WNW (300 degrees) at 13 MPH (11 knots; 5.7 m/s)
Visibility: 6 or more miles (10+ km)
Ceiling: ceiling and visibility are OK
Clouds: unknown
Weather: no significant weather observed at this time

METAR text: FAOR 220730Z 30011KT CAVOK 08/00 Q1030 NOSIG
Conditions at: FAOR (JOHANNESBURG/TAM, ZA) observed 0730 UTC 22 July 2019
Temperature: 8.0°C (46°F)
Dewpoint: 0.0°C (32°F) [RH = 57%]
Pressure (altimeter): 30.41 inches Hg (1030.0 mb)
Winds: from the WNW (300 degrees) at 13 MPH (11 knots; 5.7 m/s)
Visibility: 6 or more miles (10+ km)
Ceiling: ceiling and visibility are OK
Clouds: unknown
Weather: no significant weather observed at this time

Forecast for: FAOR (JOHANNESBURG/TAM, ZA)
Text: TAF FAOR 220600Z 2206/2312 34010KT CAVOK TX16/2213Z TN03/2305Z
Forecast period: 0600 to 1800 UTC 22 July 2019
Forecast type: FROM: standard forecast or significant change
Winds: from the NNW (340 degrees) at 12 MPH (10 knots; 5.1 m/s)
Visibility: 6 or more miles 10+ km)
Ceiling: unknown
Clouds: missing
Weather: no significant weather forecast for this period
Text: BECMG 2218/2220 VRB03KT
Forecast period: 1800 UTC 22 July 2019 to 0700 UTC 23 July 2019
Forecast type: BECOMING: Conditions expected to become as follows by 2000 UTC 22 July 2019
Winds: variable direction winds at 3 MPH (3 knots; 1.5 m/s)
Visibility: 6 or more miles 10+ km)
Ceiling: unknown
Clouds: missing
Weather: no significant weather forecast for this period
Text: FM230700 34012KT CAVOK
Forecast period: 0700 to 1200 UTC 23 July 2019
Forecast type: FROM: standard forecast or significant change
Winds: from the NNW (340 degrees) at 14 MPH (12 knots; 6.2 m/s)
Visibility: 6 or more miles 10+ km)
Ceiling: unknown
Clouds: missing
Weather: NSW  (no significant weather)

 AIRPORT MAP

 RUNWAY INFORMATION

 AIRPORT FREQUENCIES

 AIRPORT NEAR NAVIGATION AIDS